sensor_id;sensor_type;location;lat;lon;timestamp;temperature;humidity
64796;DHT22;51229;51.980;6.722;2022-07-23T00:01:17;17.00;92.10
64796;DHT22;51229;51.980;6.722;2022-07-23T00:03:42;17.00;92.10
64796;DHT22;51229;51.980;6.722;2022-07-23T00:06:08;17.00;92.20
64796;DHT22;51229;51.980;6.722;2022-07-23T00:08:34;17.00;92.20
64796;DHT22;51229;51.980;6.722;2022-07-23T00:11:00;16.90;92.10
64796;DHT22;51229;51.980;6.722;2022-07-23T00:13:26;17.00;92.10
64796;DHT22;51229;51.980;6.722;2022-07-23T00:15:52;16.90;92.20
64796;DHT22;51229;51.980;6.722;2022-07-23T00:18:18;16.90;92.20
64796;DHT22;51229;51.980;6.722;2022-07-23T00:20:43;16.90;92.20
64796;DHT22;51229;51.980;6.722;2022-07-23T00:23:09;16.90;92.20
64796;DHT22;51229;51.980;6.722;2022-07-23T00:25:35;16.90;92.20
64796;DHT22;51229;51.980;6.722;2022-07-23T00:28:01;16.90;92.20
64796;DHT22;51229;51.980;6.722;2022-07-23T00:30:27;16.80;92.20
64796;DHT22;51229;51.980;6.722;2022-07-23T00:32:58;16.80;92.20
64796;DHT22;51229;51.980;6.722;2022-07-23T00:35:26;16.70;92.30
64796;DHT22;51229;51.980;6.722;2022-07-23T00:37:54;16.70;92.30
64796;DHT22;51229;51.980;6.722;2022-07-23T00:40:20;16.70;92.30
64796;DHT22;51229;51.980;6.722;2022-07-23T00:42:45;16.70;92.40
64796;DHT22;51229;51.980;6.722;2022-07-23T00:45:11;16.70;92.40
64796;DHT22;51229;51.980;6.722;2022-07-23T00:47:37;16.70;92.50
64796;DHT22;51229;51.980;6.722;2022-07-23T00:50:05;16.70;92.40
64796;DHT22;51229;51.980;6.722;2022-07-23T00:52:32;16.60;92.40
64796;DHT22;51229;51.980;6.722;2022-07-23T00:54:58;16.60;92.40
64796;DHT22;51229;51.980;6.722;2022-07-23T00:57:24;16.60;92.60
64796;DHT22;51229;51.980;6.722;2022-07-23T00:59:49;16.50;92.50
64796;DHT22;51229;51.980;6.722;2022-07-23T01:02:15;16.50;92.60
64796;DHT22;51229;51.980;6.722;2022-07-23T01:04:40;16.50;92.70
64796;DHT22;51229;51.980;6.722;2022-07-23T01:07:07;16.40;92.80
64796;DHT22;51229;51.980;6.722;2022-07-23T01:09:33;16.40;92.70
64796;DHT22;51229;51.980;6.722;2022-07-23T01:11:59;16.40;92.70
64796;DHT22;51229;51.980;6.722;2022-07-23T01:14:25;16.40;92.80
64796;DHT22;51229;51.980;6.722;2022-07-23T01:16:51;16.40;92.80
64796;DHT22;51229;51.980;6.722;2022-07-23T01:19:17;16.30;92.80
64796;DHT22;51229;51.980;6.722;2022-07-23T01:21:53;16.40;92.80
64796;DHT22;51229;51.980;6.722;2022-07-23T01:24:20;16.30;92.90
64796;DHT22;51229;51.980;6.722;2022-07-23T01:27:12;16.20;92.90
64796;DHT22;51229;51.980;6.722;2022-07-23T01:29:39;16.20;93.00
64796;DHT22;51229;51.980;6.722;2022-07-23T01:32:10;16.20;93.00
64796;DHT22;51229;51.980;6.722;2022-07-23T01:34:36;16.20;93.10
64796;DHT22;51229;51.980;6.722;2022-07-23T01:37:01;16.10;93.00
64796;DHT22;51229;51.980;6.722;2022-07-23T01:39:28;16.10;93.00
64796;DHT22;51229;51.980;6.722;2022-07-23T01:41:54;16.10;93.20
64796;DHT22;51229;51.980;6.722;2022-07-23T01:44:20;16.00;93.20
64796;DHT22;51229;51.980;6.722;2022-07-23T01:46:46;16.00;93.10
64796;DHT22;51229;51.980;6.722;2022-07-23T01:49:12;16.00;93.10
64796;DHT22;51229;51.980;6.722;2022-07-23T01:52:03;15.90;93.30
64796;DHT22;51229;51.980;6.722;2022-07-23T01:54:40;15.90;93.30
64796;DHT22;51229;51.980;6.722;2022-07-23T01:57:07;15.90;93.30
64796;DHT22;51229;51.980;6.722;2022-07-23T01:59:33;15.90;93.40
64796;DHT22;51229;51.980;6.722;2022-07-23T02:01:59;15.80;93.60
64796;DHT22;51229;51.980;6.722;2022-07-23T02:04:27;15.70;93.80
64796;DHT22;51229;51.980;6.722;2022-07-23T02:06:54;15.70;93.80
64796;DHT22;51229;51.980;6.722;2022-07-23T02:09:19;15.70;93.70
64796;DHT22;51229;51.980;6.722;2022-07-23T02:11:46;15.70;93.70
64796;DHT22;51229;51.980;6.722;2022-07-23T02:14:12;15.70;93.70
64796;DHT22;51229;51.980;6.722;2022-07-23T02:16:38;15.70;93.50
64796;DHT22;51229;51.980;6.722;2022-07-23T02:19:04;15.70;93.60
64796;DHT22;51229;51.980;6.722;2022-07-23T02:21:30;15.70;93.60
64796;DHT22;51229;51.980;6.722;2022-07-23T02:23:55;15.70;93.60
64796;DHT22;51229;51.980;6.722;2022-07-23T02:26:21;15.60;93.50
64796;DHT22;51229;51.980;6.722;2022-07-23T02:28:50;15.60;93.60
64796;DHT22;51229;51.980;6.722;2022-07-23T02:31:16;15.50;93.70
64796;DHT22;51229;51.980;6.722;2022-07-23T02:33:42;15.60;93.60
64796;DHT22;51229;51.980;6.722;2022-07-23T02:36:08;15.50;93.70
64796;DHT22;51229;51.980;6.722;2022-07-23T02:38:34;15.50;93.70
64796;DHT22;51229;51.980;6.722;2022-07-23T02:41:00;15.40;93.80
64796;DHT22;51229;51.980;6.722;2022-07-23T02:43:26;15.40;93.80
64796;DHT22;51229;51.980;6.722;2022-07-23T02:45:51;15.40;93.80
64796;DHT22;51229;51.980;6.722;2022-07-23T02:48:17;15.40;93.80
64796;DHT22;51229;51.980;6.722;2022-07-23T02:50:45;15.40;93.80
64796;DHT22;51229;51.980;6.722;2022-07-23T02:53:14;15.40;93.80
64796;DHT22;51229;51.980;6.722;2022-07-23T02:55:41;15.30;93.80
64796;DHT22;51229;51.980;6.722;2022-07-23T02:58:07;15.30;93.80
64796;DHT22;51229;51.980;6.722;2022-07-23T03:00:33;15.30;93.90
64796;DHT22;51229;51.980;6.722;2022-07-23T03:02:59;15.30;93.90
64796;DHT22;51229;51.980;6.722;2022-07-23T03:05:25;15.30;93.90
64796;DHT22;51229;51.980;6.722;2022-07-23T03:07:50;15.20;94.20
64796;DHT22;51229;51.980;6.722;2022-07-23T03:10:16;15.20;93.90
64796;DHT22;51229;51.980;6.722;2022-07-23T03:12:43;15.10;93.90
64796;DHT22;51229;51.980;6.722;2022-07-23T03:15:09;15.10;93.90
64796;DHT22;51229;51.980;6.722;2022-07-23T03:17:35;15.10;94.00
64796;DHT22;51229;51.980;6.722;2022-07-23T03:20:01;15.10;94.00
64796;DHT22;51229;51.980;6.722;2022-07-23T03:22:27;15.00;94.10
64796;DHT22;51229;51.980;6.722;2022-07-23T03:24:53;15.00;94.10
64796;DHT22;51229;51.980;6.722;2022-07-23T03:27:32;15.00;94.10
64796;DHT22;51229;51.980;6.722;2022-07-23T03:29:59;15.00;94.00
64796;DHT22;51229;51.980;6.722;2022-07-23T03:32:25;14.90;94.00
64796;DHT22;51229;51.980;6.722;2022-07-23T03:34:51;14.90;94.00
64796;DHT22;51229;51.980;6.722;2022-07-23T03:37:18;14.90;94.10
64796;DHT22;51229;51.980;6.722;2022-07-23T03:39:45;14.90;94.10
64796;DHT22;51229;51.980;6.722;2022-07-23T03:42:10;14.90;94.10
64796;DHT22;51229;51.980;6.722;2022-07-23T03:44:36;14.90;94.20
64796;DHT22;51229;51.980;6.722;2022-07-23T03:47:04;14.80;94.20
64796;DHT22;51229;51.980;6.722;2022-07-23T03:49:30;14.80;94.20
64796;DHT22;51229;51.980;6.722;2022-07-23T03:51:56;14.80;94.20
64796;DHT22;51229;51.980;6.722;2022-07-23T03:54:21;14.80;94.20
64796;DHT22;51229;51.980;6.722;2022-07-23T03:56:47;14.80;94.20
64796;DHT22;51229;51.980;6.722;2022-07-23T03:59:13;14.80;94.50
64796;DHT22;51229;51.980;6.722;2022-07-23T04:01:39;14.70;94.20
64796;DHT22;51229;51.980;6.722;2022-07-23T04:04:05;14.70;94.30
64796;DHT22;51229;51.980;6.722;2022-07-23T04:06:32;14.70;94.30
64796;DHT22;51229;51.980;6.722;2022-07-23T04:08:58;14.70;94.20
64796;DHT22;51229;51.980;6.722;2022-07-23T04:11:24;14.70;94.10
64796;DHT22;51229;51.980;6.722;2022-07-23T04:13:50;14.60;94.20
64796;DHT22;51229;51.980;6.722;2022-07-23T04:16:16;14.60;94.30
64796;DHT22;51229;51.980;6.722;2022-07-23T04:18:41;14.70;94.20
64796;DHT22;51229;51.980;6.722;2022-07-23T04:21:15;14.70;94.30
64796;DHT22;51229;51.980;6.722;2022-07-23T04:23:41;14.60;94.10
64796;DHT22;51229;51.980;6.722;2022-07-23T04:26:07;14.60;94.20
64796;DHT22;51229;51.980;6.722;2022-07-23T04:28:33;14.60;94.20
64796;DHT22;51229;51.980;6.722;2022-07-23T04:31:01;14.60;94.10
64796;DHT22;51229;51.980;6.722;2022-07-23T04:33:28;14.60;94.00
64796;DHT22;51229;51.980;6.722;2022-07-23T04:35:57;14.70;94.00
64796;DHT22;51229;51.980;6.722;2022-07-23T04:38:22;14.70;93.90
64796;DHT22;51229;51.980;6.722;2022-07-23T04:40:50;14.60;93.90
64796;DHT22;51229;51.980;6.722;2022-07-23T04:43:16;14.60;93.90
64796;DHT22;51229;51.980;6.722;2022-07-23T04:45:45;14.60;93.80
64796;DHT22;51229;51.980;6.722;2022-07-23T04:48:11;14.70;93.80
64796;DHT22;51229;51.980;6.722;2022-07-23T04:50:38;14.70;93.70
64796;DHT22;51229;51.980;6.722;2022-07-23T04:53:04;14.70;93.70
64796;DHT22;51229;51.980;6.722;2022-07-23T04:55:30;14.70;93.70
64796;DHT22;51229;51.980;6.722;2022-07-23T04:57:56;14.80;93.60
64796;DHT22;51229;51.980;6.722;2022-07-23T05:00:21;14.70;93.60
64796;DHT22;51229;51.980;6.722;2022-07-23T05:02:47;14.80;93.50
64796;DHT22;51229;51.980;6.722;2022-07-23T05:05:13;14.80;93.40
64796;DHT22;51229;51.980;6.722;2022-07-23T05:07:41;14.80;93.40
64796;DHT22;51229;51.980;6.722;2022-07-23T05:10:07;14.80;93.40
64796;DHT22;51229;51.980;6.722;2022-07-23T05:12:32;14.80;93.40
64796;DHT22;51229;51.980;6.722;2022-07-23T05:14:58;14.90;93.40
64796;DHT22;51229;51.980;6.722;2022-07-23T05:17:24;14.90;93.30
64796;DHT22;51229;51.980;6.722;2022-07-23T05:19:51;14.90;93.20
64796;DHT22;51229;51.980;6.722;2022-07-23T05:22:17;14.90;93.10
64796;DHT22;51229;51.980;6.722;2022-07-23T05:24:42;15.00;93.10
64796;DHT22;51229;51.980;6.722;2022-07-23T05:27:08;15.00;93.10
64796;DHT22;51229;51.980;6.722;2022-07-23T05:29:34;15.00;93.00
64796;DHT22;51229;51.980;6.722;2022-07-23T05:32:00;15.10;93.00
64796;DHT22;51229;51.980;6.722;2022-07-23T05:34:28;15.10;93.10
64796;DHT22;51229;51.980;6.722;2022-07-23T05:36:55;15.10;93.10
64796;DHT22;51229;51.980;6.722;2022-07-23T05:39:21;15.10;93.10
64796;DHT22;51229;51.980;6.722;2022-07-23T05:41:47;15.20;93.00
64796;DHT22;51229;51.980;6.722;2022-07-23T05:44:13;15.20;93.00
64796;DHT22;51229;51.980;6.722;2022-07-23T05:46:41;15.20;93.10
64796;DHT22;51229;51.980;6.722;2022-07-23T05:49:11;15.30;93.10
64796;DHT22;51229;51.980;6.722;2022-07-23T05:51:56;15.40;93.10
64796;DHT22;51229;51.980;6.722;2022-07-23T05:54:34;15.40;93.00
64796;DHT22;51229;51.980;6.722;2022-07-23T05:57:01;15.40;92.90
64796;DHT22;51229;51.980;6.722;2022-07-23T05:59:26;15.40;93.00
64796;DHT22;51229;51.980;6.722;2022-07-23T06:01:52;15.20;94.90
64796;DHT22;51229;51.980;6.722;2022-07-23T06:04:18;15.30;93.80
64796;DHT22;51229;51.980;6.722;2022-07-23T06:06:55;15.50;93.50
64796;DHT22;51229;51.980;6.722;2022-07-23T06:09:21;15.60;93.30
64796;DHT22;51229;51.980;6.722;2022-07-23T06:11:46;15.70;93.10
64796;DHT22;51229;51.980;6.722;2022-07-23T06:14:12;15.80;93.70
64796;DHT22;51229;51.980;6.722;2022-07-23T06:16:49;15.60;93.70
64796;DHT22;51229;51.980;6.722;2022-07-23T06:19:15;15.80;93.50
64796;DHT22;51229;51.980;6.722;2022-07-23T06:21:41;15.90;93.20
64796;DHT22;51229;51.980;6.722;2022-07-23T06:24:06;16.00;93.10
64796;DHT22;51229;51.980;6.722;2022-07-23T06:26:32;16.20;92.80
64796;DHT22;51229;51.980;6.722;2022-07-23T06:29:00;16.30;92.90
64796;DHT22;51229;51.980;6.722;2022-07-23T06:31:26;16.40;92.70
64796;DHT22;51229;51.980;6.722;2022-07-23T06:33:51;16.50;92.50
64796;DHT22;51229;51.980;6.722;2022-07-23T06:36:17;16.60;92.40
64796;DHT22;51229;51.980;6.722;2022-07-23T06:38:43;16.80;92.30
64796;DHT22;51229;51.980;6.722;2022-07-23T06:41:08;17.00;92.00
64796;DHT22;51229;51.980;6.722;2022-07-23T06:43:35;17.00;91.90
64796;DHT22;51229;51.980;6.722;2022-07-23T06:46:00;17.10;91.90
64796;DHT22;51229;51.980;6.722;2022-07-23T06:48:26;17.10;95.00
64796;DHT22;51229;51.980;6.722;2022-07-23T06:50:52;17.10;92.60
64796;DHT22;51229;51.980;6.722;2022-07-23T06:53:22;17.30;92.10
64796;DHT22;51229;51.980;6.722;2022-07-23T06:55:48;17.60;91.90
64796;DHT22;51229;51.980;6.722;2022-07-23T06:58:13;17.70;91.50
64796;DHT22;51229;51.980;6.722;2022-07-23T07:00:40;17.90;91.40
64796;DHT22;51229;51.980;6.722;2022-07-23T07:03:05;18.00;91.40
64796;DHT22;51229;51.980;6.722;2022-07-23T07:05:32;18.00;91.50
64796;DHT22;51229;51.980;6.722;2022-07-23T07:07:58;18.20;91.30
64796;DHT22;51229;51.980;6.722;2022-07-23T07:10:24;18.50;90.90
64796;DHT22;51229;51.980;6.722;2022-07-23T07:12:49;18.60;91.20
64796;DHT22;51229;51.980;6.722;2022-07-23T07:15:15;18.70;93.10
64796;DHT22;51229;51.980;6.722;2022-07-23T07:17:41;18.40;91.60
64796;DHT22;51229;51.980;6.722;2022-07-23T07:20:08;18.80;90.90
64796;DHT22;51229;51.980;6.722;2022-07-23T07:22:34;18.50;92.20
64796;DHT22;51229;51.980;6.722;2022-07-23T07:24:59;18.80;91.30
64796;DHT22;51229;51.980;6.722;2022-07-23T07:27:25;19.20;90.50
64796;DHT22;51229;51.980;6.722;2022-07-23T07:29:51;19.50;90.40
64796;DHT22;51229;51.980;6.722;2022-07-23T07:32:16;19.80;90.00
64796;DHT22;51229;51.980;6.722;2022-07-23T07:34:42;18.70;91.50
64796;DHT22;51229;51.980;6.722;2022-07-23T07:37:08;19.60;90.40
64796;DHT22;51229;51.980;6.722;2022-07-23T07:39:33;19.50;90.40
64796;DHT22;51229;51.980;6.722;2022-07-23T07:41:59;19.90;89.60
64796;DHT22;51229;51.980;6.722;2022-07-23T07:44:25;19.70;90.20
64796;DHT22;51229;51.980;6.722;2022-07-23T07:46:50;19.30;90.90
64796;DHT22;51229;51.980;6.722;2022-07-23T07:49:16;20.10;90.00
64796;DHT22;51229;51.980;6.722;2022-07-23T07:51:45;20.90;87.60
64796;DHT22;51229;51.980;6.722;2022-07-23T07:54:10;21.10;86.50
64796;DHT22;51229;51.980;6.722;2022-07-23T07:56:36;20.70;87.90
64796;DHT22;51229;51.980;6.722;2022-07-23T07:59:02;20.40;88.80
64796;DHT22;51229;51.980;6.722;2022-07-23T08:01:27;20.50;89.20
64796;DHT22;51229;51.980;6.722;2022-07-23T08:03:53;20.50;89.50
64796;DHT22;51229;51.980;6.722;2022-07-23T08:06:19;20.40;90.00
64796;DHT22;51229;51.980;6.722;2022-07-23T08:08:44;20.50;89.80
64796;DHT22;51229;51.980;6.722;2022-07-23T08:11:10;21.20;87.80
64796;DHT22;51229;51.980;6.722;2022-07-23T08:13:36;21.70;84.50
64796;DHT22;51229;51.980;6.722;2022-07-23T08:16:01;21.00;87.40
64796;DHT22;51229;51.980;6.722;2022-07-23T08:18:27;21.70;86.80
64796;DHT22;51229;51.980;6.722;2022-07-23T08:20:53;22.10;84.70
64796;DHT22;51229;51.980;6.722;2022-07-23T08:23:18;22.10;85.20
64796;DHT22;51229;51.980;6.722;2022-07-23T08:25:45;22.30;84.30
64796;DHT22;51229;51.980;6.722;2022-07-23T08:28:13;21.70;86.20
64796;DHT22;51229;51.980;6.722;2022-07-23T08:30:41;22.10;84.50
64796;DHT22;51229;51.980;6.722;2022-07-23T08:33:15;22.50;82.80
64796;DHT22;51229;51.980;6.722;2022-07-23T08:35:46;23.00;81.40
64796;DHT22;51229;51.980;6.722;2022-07-23T08:38:14;23.40;80.00
64796;DHT22;51229;51.980;6.722;2022-07-23T08:40:44;22.70;78.10
64796;DHT22;51229;51.980;6.722;2022-07-23T08:43:21;22.90;80.50
64796;DHT22;51229;51.980;6.722;2022-07-23T08:45:51;23.60;79.10
64796;DHT22;51229;51.980;6.722;2022-07-23T08:48:22;23.30;77.80
64796;DHT22;51229;51.980;6.722;2022-07-23T08:51:00;23.60;77.70
64796;DHT22;51229;51.980;6.722;2022-07-23T08:53:28;24.00;76.80
64796;DHT22;51229;51.980;6.722;2022-07-23T08:55:59;24.30;76.30
64796;DHT22;51229;51.980;6.722;2022-07-23T08:58:27;24.40;76.40
64796;DHT22;51229;51.980;6.722;2022-07-23T09:00:53;24.70;76.00
64796;DHT22;51229;51.980;6.722;2022-07-23T09:03:24;24.70;76.20
64796;DHT22;51229;51.980;6.722;2022-07-23T09:05:54;24.60;69.30
64796;DHT22;51229;51.980;6.722;2022-07-23T09:08:24;24.30;77.50
64796;DHT22;51229;51.980;6.722;2022-07-23T09:15:53;25.70;74.10
64796;DHT22;51229;51.980;6.722;2022-07-23T09:18:27;25.40;75.30
64796;DHT22;51229;51.980;6.722;2022-07-23T09:21:05;25.70;74.70
64796;DHT22;51229;51.980;6.722;2022-07-23T09:26:20;26.50;73.20
64796;DHT22;51229;51.980;6.722;2022-07-23T09:31:57;26.40;71.80
64796;DHT22;51229;51.980;6.722;2022-07-23T09:34:25;25.70;73.00
64796;DHT22;51229;51.980;6.722;2022-07-23T09:36:54;26.40;73.40
64796;DHT22;51229;51.980;6.722;2022-07-23T09:39:32;26.80;73.10
64796;DHT22;51229;51.980;6.722;2022-07-23T09:42:15;26.80;72.80
64796;DHT22;51229;51.980;6.722;2022-07-23T09:44:42;27.10;72.30
64796;DHT22;51229;51.980;6.722;2022-07-23T09:47:08;27.60;71.00
64796;DHT22;51229;51.980;6.722;2022-07-23T09:49:34;27.60;70.70
64796;DHT22;51229;51.980;6.722;2022-07-23T09:52:00;27.60;71.00
64796;DHT22;51229;51.980;6.722;2022-07-23T09:54:36;27.70;71.30
64796;DHT22;51229;51.980;6.722;2022-07-23T09:57:08;27.60;70.80
64796;DHT22;51229;51.980;6.722;2022-07-23T09:59:38;27.80;71.10
64796;DHT22;51229;51.980;6.722;2022-07-23T10:02:05;28.20;69.90
64796;DHT22;51229;51.980;6.722;2022-07-23T10:04:39;28.40;66.60
64796;DHT22;51229;51.980;6.722;2022-07-23T10:07:17;28.40;68.90
64796;DHT22;51229;51.980;6.722;2022-07-23T10:10:06;28.30;69.20
64796;DHT22;51229;51.980;6.722;2022-07-23T10:12:53;28.50;69.30
64796;DHT22;51229;51.980;6.722;2022-07-23T10:15:40;28.40;70.00
64796;DHT22;51229;51.980;6.722;2022-07-23T10:18:05;28.80;69.50
64796;DHT22;51229;51.980;6.722;2022-07-23T10:20:32;29.20;68.70
64796;DHT22;51229;51.980;6.722;2022-07-23T10:23:04;29.30;65.40
64796;DHT22;51229;51.980;6.722;2022-07-23T10:28:32;29.40;67.60
64796;DHT22;51229;51.980;6.722;2022-07-23T10:36:53;28.70;64.50
64796;DHT22;51229;51.980;6.722;2022-07-23T10:39:31;29.40;67.90
64796;DHT22;51229;51.980;6.722;2022-07-23T10:42:14;29.70;67.30
64796;DHT22;51229;51.980;6.722;2022-07-23T10:44:46;30.50;65.80
64796;DHT22;51229;51.980;6.722;2022-07-23T10:47:21;30.50;65.50
64796;DHT22;51229;51.980;6.722;2022-07-23T10:49:53;30.70;65.60
64796;DHT22;51229;51.980;6.722;2022-07-23T10:52:24;30.40;65.30
64796;DHT22;51229;51.980;6.722;2022-07-23T10:54:53;30.40;65.10
64796;DHT22;51229;51.980;6.722;2022-07-23T10:57:24;30.40;65.60
64796;DHT22;51229;51.980;6.722;2022-07-23T11:02:39;30.20;65.60
64796;DHT22;51229;51.980;6.722;2022-07-23T11:05:08;30.70;65.00
64796;DHT22;51229;51.980;6.722;2022-07-23T11:07:35;30.80;65.10
64796;DHT22;51229;51.980;6.722;2022-07-23T11:10:01;30.50;65.40
64796;DHT22;51229;51.980;6.722;2022-07-23T11:17:28;31.10;63.70
64796;DHT22;51229;51.980;6.722;2022-07-23T11:25:11;31.60;63.00
64796;DHT22;51229;51.980;6.722;2022-07-23T11:27:41;31.20;64.10
64796;DHT22;51229;51.980;6.722;2022-07-23T11:30:09;31.10;63.80
64796;DHT22;51229;51.980;6.722;2022-07-23T11:32:40;31.20;64.20
64796;DHT22;51229;51.980;6.722;2022-07-23T11:35:27;31.40;63.60
64796;DHT22;51229;51.980;6.722;2022-07-23T11:38:02;31.90;62.10
64796;DHT22;51229;51.980;6.722;2022-07-23T11:40:28;31.40;62.50
64796;DHT22;51229;51.980;6.722;2022-07-23T11:45:19;31.70;58.70
64796;DHT22;51229;51.980;6.722;2022-07-23T11:47:45;30.10;60.20
64796;DHT22;51229;51.980;6.722;2022-07-23T11:50:11;30.90;64.20
64796;DHT22;51229;51.980;6.722;2022-07-23T11:52:36;31.90;62.10
64796;DHT22;51229;51.980;6.722;2022-07-23T11:55:10;31.70;62.50
64796;DHT22;51229;51.980;6.722;2022-07-23T11:57:40;31.90;62.60
64796;DHT22;51229;51.980;6.722;2022-07-23T12:02:51;30.80;63.60
64796;DHT22;51229;51.980;6.722;2022-07-23T12:05:19;31.60;60.40
64796;DHT22;51229;51.980;6.722;2022-07-23T12:07:47;32.30;61.50
64796;DHT22;51229;51.980;6.722;2022-07-23T12:10:22;32.40;61.50
64796;DHT22;51229;51.980;6.722;2022-07-23T12:12:57;32.70;61.00
64796;DHT22;51229;51.980;6.722;2022-07-23T12:15:25;32.70;60.50
64796;DHT22;51229;51.980;6.722;2022-07-23T12:17:53;32.50;60.50
64796;DHT22;51229;51.980;6.722;2022-07-23T12:20:22;32.40;60.50
64796;DHT22;51229;51.980;6.722;2022-07-23T12:22:51;32.20;60.90
64796;DHT22;51229;51.980;6.722;2022-07-23T12:25:19;32.40;61.20
64796;DHT22;51229;51.980;6.722;2022-07-23T12:27:46;31.90;61.20
64796;DHT22;51229;51.980;6.722;2022-07-23T12:30:25;32.00;61.30
64796;DHT22;51229;51.980;6.722;2022-07-23T12:32:56;32.40;60.70
64796;DHT22;51229;51.980;6.722;2022-07-23T12:35:23;32.60;60.50
64796;DHT22;51229;51.980;6.722;2022-07-23T12:37:51;32.90;60.00
64796;DHT22;51229;51.980;6.722;2022-07-23T12:40:45;32.80;59.90
64796;DHT22;51229;51.980;6.722;2022-07-23T12:43:19;33.00;55.80
64796;DHT22;51229;51.980;6.722;2022-07-23T12:46:03;32.50;60.50
64796;DHT22;51229;51.980;6.722;2022-07-23T12:48:49;32.30;60.10
64796;DHT22;51229;51.980;6.722;2022-07-23T12:51:17;32.40;60.30
64796;DHT22;51229;51.980;6.722;2022-07-23T12:53:49;32.20;55.50
64796;DHT22;51229;51.980;6.722;2022-07-23T12:56:38;33.10;59.50
64796;DHT22;51229;51.980;6.722;2022-07-23T12:59:05;33.00;59.30
64796;DHT22;51229;51.980;6.722;2022-07-23T13:01:34;33.10;59.00
64796;DHT22;51229;51.980;6.722;2022-07-23T13:06:36;33.50;58.40
64796;DHT22;51229;51.980;6.722;2022-07-23T13:09:04;33.20;58.60
64796;DHT22;51229;51.980;6.722;2022-07-23T13:11:30;33.50;58.50
64796;DHT22;51229;51.980;6.722;2022-07-23T13:13:56;33.80;58.30
64796;DHT22;51229;51.980;6.722;2022-07-23T13:16:22;33.90;57.80
64796;DHT22;51229;51.980;6.722;2022-07-23T13:18:47;32.90;58.40
64796;DHT22;51229;51.980;6.722;2022-07-23T13:21:13;33.20;58.90
64796;DHT22;51229;51.980;6.722;2022-07-23T13:23:39;33.30;58.60
64796;DHT22;51229;51.980;6.722;2022-07-23T13:26:05;33.20;59.30
64796;DHT22;51229;51.980;6.722;2022-07-23T13:28:30;33.40;57.80
64796;DHT22;51229;51.980;6.722;2022-07-23T13:30:56;34.00;57.40
64796;DHT22;51229;51.980;6.722;2022-07-23T13:33:24;32.70;50.90
64796;DHT22;51229;51.980;6.722;2022-07-23T13:35:50;31.30;61.30
64796;DHT22;51229;51.980;6.722;2022-07-23T13:38:17;31.50;62.10
64796;DHT22;51229;51.980;6.722;2022-07-23T13:40:45;31.60;61.70
64796;DHT22;51229;51.980;6.722;2022-07-23T13:43:14;31.70;61.60
64796;DHT22;51229;51.980;6.722;2022-07-23T13:45:40;31.40;50.50
64796;DHT22;51229;51.980;6.722;2022-07-23T13:48:08;30.40;55.00
64796;DHT22;51229;51.980;6.722;2022-07-23T13:50:34;31.70;61.70
64796;DHT22;51229;51.980;6.722;2022-07-23T13:53:21;32.40;60.60
64796;DHT22;51229;51.980;6.722;2022-07-23T13:55:48;32.80;59.90
64796;DHT22;51229;51.980;6.722;2022-07-23T13:58:15;32.40;60.40
64796;DHT22;51229;51.980;6.722;2022-07-23T14:00:43;31.90;61.20
64796;DHT22;51229;51.980;6.722;2022-07-23T14:03:09;32.00;58.40
64796;DHT22;51229;51.980;6.722;2022-07-23T14:05:35;31.90;60.70
64796;DHT22;51229;51.980;6.722;2022-07-23T14:08:02;31.50;61.20
64796;DHT22;51229;51.980;6.722;2022-07-23T14:10:28;31.70;61.30
64796;DHT22;51229;51.980;6.722;2022-07-23T14:12:53;32.30;60.40
64796;DHT22;51229;51.980;6.722;2022-07-23T14:15:22;32.70;59.30
64796;DHT22;51229;51.980;6.722;2022-07-23T14:17:48;32.30;59.90
64796;DHT22;51229;51.980;6.722;2022-07-23T14:20:14;32.50;50.20
64796;DHT22;51229;51.980;6.722;2022-07-23T14:22:41;31.00;62.10
64796;DHT22;51229;51.980;6.722;2022-07-23T14:25:07;31.30;61.50
64796;DHT22;51229;51.980;6.722;2022-07-23T14:27:34;31.00;62.20
64796;DHT22;51229;51.980;6.722;2022-07-23T14:30:00;30.60;62.50
64796;DHT22;51229;51.980;6.722;2022-07-23T14:32:26;30.60;62.50
64796;DHT22;51229;51.980;6.722;2022-07-23T14:34:52;31.40;61.20
64796;DHT22;51229;51.980;6.722;2022-07-23T14:37:18;31.60;60.70
64796;DHT22;51229;51.980;6.722;2022-07-23T14:39:44;31.20;61.70
64796;DHT22;51229;51.980;6.722;2022-07-23T14:42:10;31.00;62.00
64796;DHT22;51229;51.980;6.722;2022-07-23T14:44:37;31.30;61.80
64796;DHT22;51229;51.980;6.722;2022-07-23T14:47:04;31.60;60.70
64796;DHT22;51229;51.980;6.722;2022-07-23T14:49:31;31.30;61.20
64796;DHT22;51229;51.980;6.722;2022-07-23T14:51:57;31.10;61.40
64796;DHT22;51229;51.980;6.722;2022-07-23T14:54:23;31.00;61.60
64796;DHT22;51229;51.980;6.722;2022-07-23T14:56:51;30.70;62.10
64796;DHT22;51229;51.980;6.722;2022-07-23T14:59:17;30.00;56.50
64796;DHT22;51229;51.980;6.722;2022-07-23T15:01:43;29.30;59.00
64796;DHT22;51229;51.980;6.722;2022-07-23T15:04:08;30.00;60.50
64796;DHT22;51229;51.980;6.722;2022-07-23T15:06:34;29.90;63.20
64796;DHT22;51229;51.980;6.722;2022-07-23T15:09:00;30.20;62.40
64796;DHT22;51229;51.980;6.722;2022-07-23T15:11:27;30.10;63.00
64796;DHT22;51229;51.980;6.722;2022-07-23T15:13:54;30.20;63.10
64796;DHT22;51229;51.980;6.722;2022-07-23T15:16:20;30.00;62.60
64796;DHT22;51229;51.980;6.722;2022-07-23T15:18:46;29.90;63.30
64796;DHT22;51229;51.980;6.722;2022-07-23T15:21:12;29.80;64.20
64796;DHT22;51229;51.980;6.722;2022-07-23T15:23:38;29.90;63.60
64796;DHT22;51229;51.980;6.722;2022-07-23T15:26:05;29.80;63.70
64796;DHT22;51229;51.980;6.722;2022-07-23T15:28:32;29.60;63.50
64796;DHT22;51229;51.980;6.722;2022-07-23T15:30:57;29.50;63.90
64796;DHT22;51229;51.980;6.722;2022-07-23T15:33:23;29.40;59.70
64796;DHT22;51229;51.980;6.722;2022-07-23T15:35:49;29.30;64.00
64796;DHT22;51229;51.980;6.722;2022-07-23T15:38:15;29.30;63.90
64796;DHT22;51229;51.980;6.722;2022-07-23T15:40:40;29.50;63.80
64796;DHT22;51229;51.980;6.722;2022-07-23T15:43:06;29.70;63.20
64796;DHT22;51229;51.980;6.722;2022-07-23T15:45:32;29.90;62.80
64796;DHT22;51229;51.980;6.722;2022-07-23T15:47:58;29.70;63.30
64796;DHT22;51229;51.980;6.722;2022-07-23T15:50:24;29.10;63.70
64796;DHT22;51229;51.980;6.722;2022-07-23T15:52:49;29.00;64.10
64796;DHT22;51229;51.980;6.722;2022-07-23T15:55:15;28.70;63.30
64796;DHT22;51229;51.980;6.722;2022-07-23T15:57:41;28.10;65.40
64796;DHT22;51229;51.980;6.722;2022-07-23T16:00:07;28.60;65.10
64796;DHT22;51229;51.980;6.722;2022-07-23T16:02:34;28.70;61.90
64796;DHT22;51229;51.980;6.722;2022-07-23T16:05:00;27.50;57.80
64796;DHT22;51229;51.980;6.722;2022-07-23T16:07:26;27.20;67.10
64796;DHT22;51229;51.980;6.722;2022-07-23T16:09:52;28.20;65.80
64796;DHT22;51229;51.980;6.722;2022-07-23T16:12:17;28.10;64.10
64796;DHT22;51229;51.980;6.722;2022-07-23T16:14:43;28.40;64.40